sensor_id;sensor_type;location;lat;lon;timestamp;pressure;altitude;pressure_sealevel;temperature;humidity
20156;BME280;10238;49.556;10.956;2022-11-12T00:01:00;100050.28;;;3.69;100.00
20156;BME280;10238;49.556;10.956;2022-11-12T00:03:48;100052.19;;;3.66;100.00
20156;BME280;10238;49.556;10.956;2022-11-12T00:06:35;100050.50;;;3.65;100.00
20156;BME280;10238;49.556;10.956;2022-11-12T00:09:23;100050.69;;;3.60;100.00
20156;BME280;10238;49.556;10.956;2022-11-12T00:12:11;100049.06;;;3.58;100.00
20156;BME280;10238;49.556;10.956;2022-11-12T00:15:03;100052.78;;;3.54;100.00
20156;BME280;10238;49.556;10.956;2022-11-12T00:18:10;100049.47;;;3.49;100.00
20156;BME280;10238;49.556;10.956;2022-11-12T00:21:05;100043.56;;;3.44;100.00
20156;BME280;10238;49.556;10.956;2022-11-12T00:23:52;100050.69;;;3.42;100.00
20156;BME280;10238;49.556;10.956;2022-11-12T00:26:40;100049.97;;;3.38;100.00
20156;BME280;10238;49.556;10.956;2022-11-12T00:29:31;100054.34;;;3.38;100.00
20156;BME280;10238;49.556;10.956;2022-11-12T00:32:24;100052.72;;;3.35;100.00
20156;BME280;10238;49.556;10.956;2022-11-12T00:35:15;100046.78;;;3.32;100.00
20156;BME280;10238;49.556;10.956;2022-11-12T00:38:04;100042.47;;;3.29;100.00
20156;BME280;10238;49.556;10.956;2022-11-12T00:40:58;100047.03;;;3.26;100.00
20156;BME280;10238;49.556;10.956;2022-11-12T00:43:49;100031.28;;;3.26;100.00
20156;BME280;10238;49.556;10.956;2022-11-12T00:46:37;100038.44;;;3.22;100.00
20156;BME280;10238;49.556;10.956;2022-11-12T00:49:33;100031.47;;;3.21;100.00
20156;BME280;10238;49.556;10.956;2022-11-12T00:52:25;100031.69;;;3.17;100.00
20156;BME280;10238;49.556;10.956;2022-11-12T00:55:18;100029.13;;;3.15;100.00
20156;BME280;10238;49.556;10.956;2022-11-12T00:58:12;100035.38;;;3.13;100.00
20156;BME280;10238;49.556;10.956;2022-11-12T01:01:06;100031.94;;;3.11;100.00
20156;BME280;10238;49.556;10.956;2022-11-12T01:04:05;100028.53;;;3.09;100.00
20156;BME280;10238;49.556;10.956;2022-11-12T01:06:54;100022.63;;;3.04;100.00
20156;BME280;10238;49.556;10.956;2022-11-12T01:09:42;100024.41;;;3.03;100.00
20156;BME280;10238;49.556;10.956;2022-11-12T01:12:30;100021.91;;;3.00;100.00
20156;BME280;10238;49.556;10.956;2022-11-12T01:15:18;100028.09;;;2.99;100.00
20156;BME280;10238;49.556;10.956;2022-11-12T01:18:05;100028.22;;;2.96;100.00
20156;BME280;10238;49.556;10.956;2022-11-12T01:20:53;100029.91;;;2.97;100.00
20156;BME280;10238;49.556;10.956;2022-11-12T01:23:44;100024.84;;;2.93;100.00
20156;BME280;10238;49.556;10.956;2022-11-12T01:26:31;100028.47;;;2.90;100.00
20156;BME280;10238;49.556;10.956;2022-11-12T01:29:19;100019.81;;;2.88;100.00
20156;BME280;10238;49.556;10.956;2022-11-12T01:32:07;100017.09;;;2.90;100.00
20156;BME280;10238;49.556;10.956;2022-11-12T01:34:54;100014.63;;;2.87;100.00
20156;BME280;10238;49.556;10.956;2022-11-12T01:37:42;100013.72;;;2.88;100.00
20156;BME280;10238;49.556;10.956;2022-11-12T01:40:31;100013.59;;;2.91;100.00
20156;BME280;10238;49.556;10.956;2022-11-12T01:43:19;100015.41;;;2.89;100.00
20156;BME280;10238;49.556;10.956;2022-11-12T01:46:13;100008.47;;;2.88;100.00
20156;BME280;10238;49.556;10.956;2022-11-12T01:49:08;100004.91;;;2.89;100.00
20156;BME280;10238;49.556;10.956;2022-11-12T01:52:08;100011.84;;;2.90;100.00
20156;BME280;10238;49.556;10.956;2022-11-12T01:55:04;100007.47;;;2.90;100.00
20156;BME280;10238;49.556;10.956;2022-11-12T01:58:07;99998.66;;;2.91;100.00
20156;BME280;10238;49.556;10.956;2022-11-12T02:00:55;100000.38;;;2.92;100.00
20156;BME280;10238;49.556;10.956;2022-11-12T02:03:43;99996.84;;;2.93;100.00
20156;BME280;10238;49.556;10.956;2022-11-12T02:06:35;100002.81;;;2.97;100.00
20156;BME280;10238;49.556;10.956;2022-11-12T02:09:25;99996.63;;;2.98;100.00
20156;BME280;10238;49.556;10.956;2022-11-12T02:12:13;100000.06;;;3.00;100.00
20156;BME280;10238;49.556;10.956;2022-11-12T02:15:25;100006.94;;;3.02;100.00
20156;BME280;10238;49.556;10.956;2022-11-12T02:18:12;100007.69;;;3.04;100.00
20156;BME280;10238;49.556;10.956;2022-11-12T02:21:07;100006.75;;;3.07;100.00
20156;BME280;10238;49.556;10.956;2022-11-12T02:24:03;100009.38;;;3.07;100.00
20156;BME280;10238;49.556;10.956;2022-11-12T02:26:54;100004.94;;;3.07;100.00
20156;BME280;10238;49.556;10.956;2022-11-12T02:29:42;100008.38;;;3.09;100.00
20156;BME280;10238;49.556;10.956;2022-11-12T02:32:32;100003.97;;;3.10;100.00
20156;BME280;10238;49.556;10.956;2022-11-12T02:35:20;100002.13;;;3.12;100.00
20156;BME280;10238;49.556;10.956;2022-11-12T02:38:08;100002.13;;;3.12;100.00
20156;BME280;10238;49.556;10.956;2022-11-12T02:40:57;100013.50;;;3.12;100.00
20156;BME280;10238;49.556;10.956;2022-11-12T02:43:45;100009.09;;;3.13;100.00
20156;BME280;10238;49.556;10.956;2022-11-12T02:46:35;100011.66;;;3.14;100.00
20156;BME280;10238;49.556;10.956;2022-11-12T02:49:23;100007.22;;;3.15;100.00
20156;BME280;10238;49.556;10.956;2022-11-12T02:52:11;99998.44;;;3.16;100.00
20156;BME280;10238;49.556;10.956;2022-11-12T02:54:59;100006.16;;;3.19;100.00
20156;BME280;10238;49.556;10.956;2022-11-12T02:57:48;100010.59;;;3.18;100.00
20156;BME280;10238;49.556;10.956;2022-11-12T03:00:36;100000.00;;;3.20;100.00
20156;BME280;10238;49.556;10.956;2022-11-12T03:03:31;99999.09;;;3.21;100.00
20156;BME280;10238;49.556;10.956;2022-11-12T03:06:18;99996.44;;;3.21;100.00
20156;BME280;10238;49.556;10.956;2022-11-12T03:09:06;100010.38;;;3.23;100.00
20156;BME280;10238;49.556;10.956;2022-11-12T03:11:54;100005.91;;;3.25;100.00
20156;BME280;10238;49.556;10.956;2022-11-12T03:14:43;100013.78;;;3.25;100.00
20156;BME280;10238;49.556;10.956;2022-11-12T03:17:32;100015.56;;;3.24;100.00
20156;BME280;10238;49.556;10.956;2022-11-12T03:20:20;100010.25;;;3.26;100.00
20156;BME280;10238;49.556;10.956;2022-11-12T03:23:10;100010.25;;;3.26;100.00
20156;BME280;10238;49.556;10.956;2022-11-12T03:26:06;100004.06;;;3.27;100.00
20156;BME280;10238;49.556;10.956;2022-11-12T03:28:56;100001.44;;;3.27;100.00
20156;BME280;10238;49.556;10.956;2022-11-12T03:31:45;100008.38;;;3.28;100.00
20156;BME280;10238;49.556;10.956;2022-11-12T03:34:33;99997.88;;;3.28;100.00
20156;BME280;10238;49.556;10.956;2022-11-12T03:37:22;99993.47;;;3.28;100.00
20156;BME280;10238;49.556;10.956;2022-11-12T03:40:10;99996.97;;;3.29;100.00
20156;BME280;10238;49.556;10.956;2022-11-12T03:42:58;99994.34;;;3.29;100.00
20156;BME280;10238;49.556;10.956;2022-11-12T03:45:45;99996.13;;;3.28;100.00
20156;BME280;10238;49.556;10.956;2022-11-12T03:48:35;99997.03;;;3.27;100.00
20156;BME280;10238;49.556;10.956;2022-11-12T03:51:23;99999.75;;;3.26;100.00
20156;BME280;10238;49.556;10.956;2022-11-12T03:54:10;99998.00;;;3.25;100.00
20156;BME280;10238;49.556;10.956;2022-11-12T03:56:58;100003.25;;;3.25;100.00
20156;BME280;10238;49.556;10.956;2022-11-12T03:59:45;99995.38;;;3.25;100.00
20156;BME280;10238;49.556;10.956;2022-11-12T04:02:33;100003.25;;;3.25;100.00
20156;BME280;10238;49.556;10.956;2022-11-12T04:05:23;100006.81;;;3.24;100.00
20156;BME280;10238;49.556;10.956;2022-11-12T04:08:28;100005.91;;;3.25;100.00
20156;BME280;10238;49.556;10.956;2022-11-12T04:11:25;100002.44;;;3.24;100.00
20156;BME280;10238;49.556;10.956;2022-11-12T04:14:13;100003.41;;;3.22;100.00
20156;BME280;10238;49.556;10.956;2022-11-12T04:17:01;100000.78;;;3.22;100.00
20156;BME280;10238;49.556;10.956;2022-11-12T04:20:08;100003.47;;;3.20;100.00
20156;BME280;10238;49.556;10.956;2022-11-12T04:23:16;100000.09;;;3.18;100.00
20156;BME280;10238;49.556;10.956;2022-11-12T04:26:04;100004.59;;;3.15;100.00
20156;BME280;10238;49.556;10.956;2022-11-12T04:29:09;100013.50;;;3.12;100.00
20156;BME280;10238;49.556;10.956;2022-11-12T04:32:19;100014.50;;;3.10;100.00
20156;BME280;10238;49.556;10.956;2022-11-12T04:35:08;100012.00;;;3.07;100.00
20156;BME280;10238;49.556;10.956;2022-11-12T04:37:56;100017.31;;;3.05;100.00
20156;BME280;10238;49.556;10.956;2022-11-12T04:40:47;100015.66;;;3.03;100.00
20156;BME280;10238;49.556;10.956;2022-11-12T04:43:52;100014.88;;;3.01;100.00
20156;BME280;10238;49.556;10.956;2022-11-12T04:46:58;100015.88;;;2.98;100.00
20156;BME280;10238;49.556;10.956;2022-11-12T04:49:45;100019.34;;;2.99;100.00
20156;BME280;10238;49.556;10.956;2022-11-12T04:52:33;100029.22;;;2.94;100.00
20156;BME280;10238;49.556;10.956;2022-11-12T04:55:21;100027.47;;;2.93;100.00
20156;BME280;10238;49.556;10.956;2022-11-12T04:58:11;100019.88;;;2.87;100.00
20156;BME280;10238;49.556;10.956;2022-11-12T05:00:58;100015.69;;;2.83;100.00
20156;BME280;10238;49.556;10.956;2022-11-12T05:03:50;100021.84;;;2.82;100.00
20156;BME280;10238;49.556;10.956;2022-11-12T05:06:38;100028.16;;;2.78;100.00
20156;BME280;10238;49.556;10.956;2022-11-12T05:09:38;100024.81;;;2.74;100.00
20156;BME280;10238;49.556;10.956;2022-11-12T05:12:26;100028.41;;;2.72;100.00
20156;BME280;10238;49.556;10.956;2022-11-12T05:15:15;100031.94;;;2.71;100.00
20156;BME280;10238;49.556;10.956;2022-11-12T05:18:03;100024.25;;;2.66;100.00
20156;BME280;10238;49.556;10.956;2022-11-12T05:20:52;100026.13;;;2.64;100.00
20156;BME280;10238;49.556;10.956;2022-11-12T05:23:40;100021.06;;;2.60;100.00
20156;BME280;10238;49.556;10.956;2022-11-12T05:26:27;100022.13;;;2.56;100.00
20156;BME280;10238;49.556;10.956;2022-11-12T05:29:15;100018.81;;;2.51;100.00
20156;BME280;10238;49.556;10.956;2022-11-12T05:32:07;100011.13;;;2.46;100.00
20156;BME280;10238;49.556;10.956;2022-11-12T05:34:55;100013.06;;;2.43;100.00
20156;BME280;10238;49.556;10.956;2022-11-12T05:37:43;100014.06;;;2.39;100.00
20156;BME280;10238;49.556;10.956;2022-11-12T05:40:31;100008.13;;;2.35;100.00
20156;BME280;10238;49.556;10.956;2022-11-12T05:43:18;100010.00;;;2.32;100.00
20156;BME280;10238;49.556;10.956;2022-11-12T05:46:06;100015.38;;;2.28;100.00
20156;BME280;10238;49.556;10.956;2022-11-12T05:48:55;100020.81;;;2.24;100.00
20156;BME280;10238;49.556;10.956;2022-11-12T05:51:44;100008.75;;;2.20;100.00
20156;BME280;10238;49.556;10.956;2022-11-12T05:54:33;100019.41;;;2.15;100.00
20156;BME280;10238;49.556;10.956;2022-11-12T05:57:20;100017.78;;;2.13;100.00
20156;BME280;10238;49.556;10.956;2022-11-12T06:00:12;100027.53;;;2.09;100.00
20156;BME280;10238;49.556;10.956;2022-11-12T06:03:03;100027.66;;;2.06;100.00
20156;BME280;10238;49.556;10.956;2022-11-12T06:05:54;100033.00;;;2.03;100.00
20156;BME280;10238;49.556;10.956;2022-11-12T06:08:42;100034.13;;;1.98;100.00
20156;BME280;10238;49.556;10.956;2022-11-12T06:11:30;100036.91;;;1.93;100.00
20156;BME280;10238;49.556;10.956;2022-11-12T06:14:18;100040.47;;;1.92;100.00
20156;BME280;10238;49.556;10.956;2022-11-12T06:17:06;100042.41;;;1.87;100.00
20156;BME280;10238;49.556;10.956;2022-11-12T06:19:53;100051.19;;;1.86;100.00
20156;BME280;10238;49.556;10.956;2022-11-12T06:22:42;100045.13;;;1.84;100.00
20156;BME280;10238;49.556;10.956;2022-11-12T06:25:30;100049.66;;;1.81;100.00
20156;BME280;10238;49.556;10.956;2022-11-12T06:28:18;100046.28;;;1.77;100.00
20156;BME280;10238;49.556;10.956;2022-11-12T06:31:05;100049.03;;;1.74;100.00
20156;BME280;10238;49.556;10.956;2022-11-12T06:33:53;100057.00;;;1.71;100.00
20156;BME280;10238;49.556;10.956;2022-11-12T06:36:41;100056.28;;;1.68;100.00
20156;BME280;10238;49.556;10.956;2022-11-12T06:39:31;100058.97;;;1.66;100.00
20156;BME280;10238;49.556;10.956;2022-11-12T06:42:18;100054.72;;;1.62;100.00
20156;BME280;10238;49.556;10.956;2022-11-12T06:45:07;100058.28;;;1.61;100.00
20156;BME280;10238;49.556;10.956;2022-11-12T06:47:57;100050.53;;;1.58;100.00
20156;BME280;10238;49.556;10.956;2022-11-12T06:50:45;100057.59;;;1.56;100.00
20156;BME280;10238;49.556;10.956;2022-11-12T06:53:32;100045.50;;;1.52;100.00
20156;BME280;10238;49.556;10.956;2022-11-12T06:56:21;100050.75;;;1.52;100.00
20156;BME280;10238;49.556;10.956;2022-11-12T06:59:09;100054.28;;;1.51;100.00
20156;BME280;10238;49.556;10.956;2022-11-12T07:01:57;100060.47;;;1.50;100.00
20156;BME280;10238;49.556;10.956;2022-11-12T07:04:45;100060.47;;;1.50;100.00
20156;BME280;10238;49.556;10.956;2022-11-12T07:07:33;100061.28;;;1.51;100.00
20156;BME280;10238;49.556;10.956;2022-11-12T07:10:22;100070.00;;;1.51;100.00
20156;BME280;10238;49.556;10.956;2022-11-12T07:13:10;100073.56;;;1.50;100.00
20156;BME280;10238;49.556;10.956;2022-11-12T07:16:00;100067.41;;;1.51;100.00
20156;BME280;10238;49.556;10.956;2022-11-12T07:18:48;100070.88;;;1.52;100.00
20156;BME280;10238;49.556;10.956;2022-11-12T07:21:36;100073.38;;;1.55;100.00
20156;BME280;10238;49.556;10.956;2022-11-12T07:24:26;100075.03;;;1.57;100.00
20156;BME280;10238;49.556;10.956;2022-11-12T07:27:14;100074.91;;;1.60;100.00
20156;BME280;10238;49.556;10.956;2022-11-12T07:30:04;100073.81;;;1.66;100.00
20156;BME280;10238;49.556;10.956;2022-11-12T07:32:52;100069.28;;;1.71;100.00
20156;BME280;10238;49.556;10.956;2022-11-12T07:35:39;100067.38;;;1.74;100.00
20156;BME280;10238;49.556;10.956;2022-11-12T07:38:29;100070.56;;;1.82;100.00
20156;BME280;10238;49.556;10.956;2022-11-12T07:41:20;100059.84;;;1.88;100.00
20156;BME280;10238;49.556;10.956;2022-11-12T07:44:08;100062.31;;;1.93;100.00
20156;BME280;10238;49.556;10.956;2022-11-12T07:46:57;100068.16;;;1.99;100.00
20156;BME280;10238;49.556;10.956;2022-11-12T07:49:45;100069.72;;;2.03;100.00
20156;BME280;10238;49.556;10.956;2022-11-12T07:52:33;100068.66;;;2.09;100.00
20156;BME280;10238;49.556;10.956;2022-11-12T07:55:20;100069.94;;;2.20;100.00
20156;BME280;10238;49.556;10.956;2022-11-12T07:58:08;100066.38;;;2.21;100.00
20156;BME280;10238;49.556;10.956;2022-11-12T08:01:05;100073.91;;;2.31;100.00
20156;BME280;10238;49.556;10.956;2022-11-12T08:03:56;100064.97;;;2.35;100.00
20156;BME280;10238;49.556;10.956;2022-11-12T08:06:46;100070.84;;;2.41;100.00
20156;BME280;10238;49.556;10.956;2022-11-12T08:09:37;100067.03;;;2.48;100.00
20156;BME280;10238;49.556;10.956;2022-11-12T08:12:25;100060.63;;;2.55;100.00
20156;BME280;10238;49.556;10.956;2022-11-12T08:15:13;100064.25;;;2.73;100.00
20156;BME280;10238;49.556;10.956;2022-11-12T08:18:03;100067.38;;;2.82;100.00
20156;BME280;10238;49.556;10.956;2022-11-12T08:20:58;100072.00;;;2.96;100.00
20156;BME280;10238;49.556;10.956;2022-11-12T08:23:46;100065.31;;;3.09;100.00
20156;BME280;10238;49.556;10.956;2022-11-12T08:26:35;100070.81;;;3.23;100.00
20156;BME280;10238;49.556;10.956;2022-11-12T08:29:23;100070.88;;;3.21;100.00
20156;BME280;10238;49.556;10.956;2022-11-12T08:32:11;100065.66;;;3.40;100.00
20156;BME280;10238;49.556;10.956;2022-11-12T08:35:00;100072.53;;;3.62;100.00
20156;BME280;10238;49.556;10.956;2022-11-12T08:37:56;100080.56;;;3.78;100.00
20156;BME280;10238;49.556;10.956;2022-11-12T08:40:45;100069.97;;;3.98;100.00
20156;BME280;10238;49.556;10.956;2022-11-12T08:43:33;100071.41;;;4.05;100.00
20156;BME280;10238;49.556;10.956;2022-11-12T08:46:24;100074.53;;;4.30;100.00
20156;BME280;10238;49.556;10.956;2022-11-12T08:49:17;100076.28;;;4.48;100.00
20156;BME280;10238;49.556;10.956;2022-11-12T08:52:07;100073.38;;;4.71;100.00
20156;BME280;10238;49.556;10.956;2022-11-12T08:55:00;100071.53;;;4.73;100.00
20156;BME280;10238;49.556;10.956;2022-11-12T08:57:48;100062.38;;;4.80;100.00
20156;BME280;10238;49.556;10.956;2022-11-12T09:00:42;100074.94;;;4.92;100.00
20156;BME280;10238;49.556;10.956;2022-11-12T09:03:30;100070.47;;;4.94;100.00
20156;BME280;10238;49.556;10.956;2022-11-12T09:06:29;100067.47;;;5.00;100.00
20156;BME280;10238;49.556;10.956;2022-11-12T09:09:16;100065.75;;;5.16;100.00
20156;BME280;10238;49.556;10.956;2022-11-12T09:12:05;100064.47;;;5.25;100.00
20156;BME280;10238;49.556;10.956;2022-11-12T09:15:05;100061.84;;;5.40;100.00
20156;BME280;10238;49.556;10.956;2022-11-12T09:18:16;100058.59;;;5.52;100.00
20156;BME280;10238;49.556;10.956;2022-11-12T09:21:09;100054.03;;;5.71;100.00
20156;BME280;10238;49.556;10.956;2022-11-12T09:23:57;100058.31;;;5.89;100.00
20156;BME280;10238;49.556;10.956;2022-11-12T09:26:45;100047.41;;;5.95;100.00
20156;BME280;10238;49.556;10.956;2022-11-12T09:29:35;100055.63;;;6.06;100.00
20156;BME280;10238;49.556;10.956;2022-11-12T09:32:23;100063.78;;;6.17;100.00
20156;BME280;10238;49.556;10.956;2022-11-12T09:35:10;100057.63;;;6.32;100.00
20156;BME280;10238;49.556;10.956;2022-11-12T09:37:58;100056.59;;;6.50;100.00
20156;BME280;10238;49.556;10.956;2022-11-12T09:41:15;100050.75;;;6.59;100.00
20156;BME280;10238;49.556;10.956;2022-11-12T09:44:10;100049.22;;;6.71;100.00
20156;BME280;10238;49.556;10.956;2022-11-12T09:47:06;100041.59;;;6.81;100.00
20156;BME280;10238;49.556;10.956;2022-11-12T09:50:15;100046.25;;;6.91;100.00
20156;BME280;10238;49.556;10.956;2022-11-12T09:53:15;100043.00;;;7.02;100.00
20156;BME280;10238;49.556;10.956;2022-11-12T09:56:08;100037.44;;;7.06;100.00
20156;BME280;10238;49.556;10.956;2022-11-12T09:58:57;100038.47;;;7.18;100.00
20156;BME280;10238;49.556;10.956;2022-11-12T10:01:56;100032.41;;;7.30;100.00
20156;BME280;10238;49.556;10.956;2022-11-12T10:05:11;100029.91;;;7.42;100.00
20156;BME280;10238;49.556;10.956;2022-11-12T10:08:23;100029.06;;;7.56;100.00
20156;BME280;10238;49.556;10.956;2022-11-12T10:11:50;100025.25;;;7.60;100.00
20156;BME280;10238;49.556;10.956;2022-11-12T10:19:02;100018.91;;;7.90;100.00
20156;BME280;10238;49.556;10.956;2022-11-12T10:22:05;100020.47;;;8.07;100.00
20156;BME280;10238;49.556;10.956;2022-11-12T10:25:12;100019.50;;;8.22;100.00
20156;BME280;10238;49.556;10.956;2022-11-12T10:28:11;100009.56;;;8.25;100.00
20156;BME280;10238;49.556;10.956;2022-11-12T10:31:09;100003.56;;;8.36;100.00
20156;BME280;10238;49.556;10.956;2022-11-12T10:34:14;99991.41;;;8.46;100.00
20156;BME280;10238;49.556;10.956;2022-11-12T10:37:06;99996.81;;;8.57;100.00
20156;BME280;10238;49.556;10.956;2022-11-12T10:39:54;99989.22;;;8.65;100.00
20156;BME280;10238;49.556;10.956;2022-11-12T10:42:57;99982.16;;;8.78;100.00
20156;BME280;10238;49.556;10.956;2022-11-12T10:45:48;99976.44;;;8.84;100.00
20156;BME280;10238;49.556;10.956;2022-11-12T10:48:38;99970.28;;;8.96;100.00
20156;BME280;10238;49.556;10.956;2022-11-12T10:51:33;99963.28;;;8.95;100.00
20156;BME280;10238;49.556;10.956;2022-11-12T10:54:35;99959.88;;;9.06;100.00
20156;BME280;10238;49.556;10.956;2022-11-12T10:57:26;99957.16;;;9.20;100.00
20156;BME280;10238;49.556;10.956;2022-11-12T11:00:19;99948.84;;;9.24;100.00
20156;BME280;10238;49.556;10.956;2022-11-12T11:03:19;99946.72;;;9.29;100.00
20156;BME280;10238;49.556;10.956;2022-11-12T11:06:21;99946.59;;;9.43;100.00
20156;BME280;10238;49.556;10.956;2022-11-12T11:09:17;99955.63;;;9.53;100.00
20156;BME280;10238;49.556;10.956;2022-11-12T11:12:22;99941.38;;;9.54;100.00
20156;BME280;10238;49.556;10.956;2022-11-12T11:15:20;99945.81;;;9.66;100.00
20156;BME280;10238;49.556;10.956;2022-11-12T11:18:11;99938.56;;;9.68;100.00
20156;BME280;10238;49.556;10.956;2022-11-12T11:21:19;99943.84;;;9.81;100.00
20156;BME280;10238;49.556;10.956;2022-11-12T11:24:28;99944.03;;;9.90;100.00
20156;BME280;10238;49.556;10.956;2022-11-12T11:27:32;99937.81;;;10.02;100.00
20156;BME280;10238;49.556;10.956;2022-11-12T11:30:24;99926.31;;;10.14;100.00
20156;BME280;10238;49.556;10.956;2022-11-12T11:33:40;99923.00;;;10.23;100.00
20156;BME280;10238;49.556;10.956;2022-11-12T11:36:42;99920.59;;;10.31;100.00
20156;BME280;10238;49.556;10.956;2022-11-12T11:39:41;99910.97;;;10.41;100.00
20156;BME280;10238;49.556;10.956;2022-11-12T11:43:08;99915.47;;;10.52;100.00
20156;BME280;10238;49.556;10.956;2022-11-12T11:46:15;99910.06;;;10.64;100.00
20156;BME280;10238;49.556;10.956;2022-11-12T11:49:32;99903.31;;;10.71;100.00
20156;BME280;10238;49.556;10.956;2022-11-12T11:52:44;99900.31;;;10.87;100.00
20156;BME280;10238;49.556;10.956;2022-11-12T11:55:43;99887.75;;;10.89;100.00
20156;BME280;10238;49.556;10.956;2022-11-12T11:59:04;99886.91;;;10.88;100.00
20156;BME280;10238;49.556;10.956;2022-11-12T12:02:38;99886.06;;;10.99;100.00
20156;BME280;10238;49.556;10.956;2022-11-12T12:05:42;99885.22;;;11.10;100.00
20156;BME280;10238;49.556;10.956;2022-11-12T12:08:49;99887.28;;;11.06;100.00
20156;BME280;10238;49.556;10.956;2022-11-12T12:11:51;99874.34;;;11.13;100.00
20156;BME280;10238;49.556;10.956;2022-11-12T12:15:10;99881.09;;;11.39;100.00
20156;BME280;10238;49.556;10.956;2022-11-12T12:18:16;99881.06;;;11.50;100.00
20156;BME280;10238;49.556;10.956;2022-11-12T12:21:14;99877.78;;;11.68;100.00
20156;BME280;10238;49.556;10.956;2022-11-12T12:24:09;99871.22;;;11.83;100.00
20156;BME280;10238;49.556;10.956;2022-11-12T12:27:08;99871.09;;;11.96;100.00
20156;BME280;10238;49.556;10.956;2022-11-12T12:30:03;99871.16;;;12.05;100.00
20156;BME280;10238;49.556;10.956;2022-11-12T12:32:58;99856.69;;;12.19;100.00
20156;BME280;10238;49.556;10.956;2022-11-12T12:35:55;99854.94;;;12.29;100.00
20156;BME280;10238;49.556;10.956;2022-11-12T12:38:50;99846.16;;;12.38;100.00
20156;BME280;10238;49.556;10.956;2022-11-12T12:41:46;99840.31;;;12.44;100.00
20156;BME280;10238;49.556;10.956;2022-11-12T12:44:43;99832.75;;;12.49;100.00
20156;BME280;10238;49.556;10.956;2022-11-12T12:47:50;99825.22;;;12.54;100.00
20156;BME280;10238;49.556;10.956;2022-11-12T12:50:40;99819.50;;;12.58;100.00
20156;BME280;10238;49.556;10.956;2022-11-12T12:53:34;99822.72;;;12.62;100.00
20156;BME280;10238;49.556;10.956;2022-11-12T12:56:43;99825.84;;;12.67;100.00
20156;BME280;10238;49.556;10.956;2022-11-12T12:59:32;99815.78;;;12.70;100.00
20156;BME280;10238;49.556;10.956;2022-11-12T13:02:23;99818.88;;;12.75;100.00
20156;BME280;10238;49.556;10.956;2022-11-12T13:05:26;99814.94;;;12.79;100.00
20156;BME280;10238;49.556;10.956;2022-11-12T13:08:22;99817.47;;;12.81;100.00
20156;BME280;10238;49.556;10.956;2022-11-12T13:11:48;99815.41;;;12.84;100.00
20156;BME280;10238;49.556;10.956;2022-11-12T13:15:14;99819.63;;;12.87;100.00
20156;BME280;10238;49.556;10.956;2022-11-12T13:18:07;99815.88;;;12.89;100.00
20156;BME280;10238;49.556;10.956;2022-11-12T13:21:10;99818.41;;;12.91;100.00
20156;BME280;10238;49.556;10.956;2022-11-12T13:24:00;99815.56;;;12.92;100.00
20156;BME280;10238;49.556;10.956;2022-11-12T13:26:58;99809.41;;;12.92;100.00
20156;BME280;10238;49.556;10.956;2022-11-12T13:29:47;99807.56;;;12.92;100.00
20156;BME280;10238;49.556;10.956;2022-11-12T13:32:38;99799.72;;;12.91;100.00
20156;BME280;10238;49.556;10.956;2022-11-12T13:35:31;99803.22;;;12.91;100.00
20156;BME280;10238;49.556;10.956;2022-11-12T13:38:22;99806.88;;;12.90;100.00
20156;BME280;10238;49.556;10.956;2022-11-12T13:41:16;99803.34;;;12.90;100.00
20156;BME280;10238;49.556;10.956;2022-11-12T13:44:28;99813.34;;;12.88;100.00
20156;BME280;10238;49.556;10.956;2022-11-12T13:47:20;99811.63;;;12.87;100.00
20156;BME280;10238;49.556;10.956;2022-11-12T13:50:16;99813.59;;;12.85;100.00
20156;BME280;10238;49.556;10.956;2022-11-12T13:53:07;99815.53;;;12.83;100.00
20156;BME280;10238;49.556;10.956;2022-11-12T13:56:00;99817.47;;;12.81;100.00
20156;BME280;10238;49.556;10.956;2022-11-12T13:58:48;99814.13;;;12.79;100.00
20156;BME280;10238;49.556;10.956;2022-11-12T14:01:40;99823.34;;;12.75;100.00
20156;BME280;10238;49.556;10.956;2022-11-12T14:04:28;99813.78;;;12.72;100.00
20156;BME280;10238;49.556;10.956;2022-11-12T14:07:38;99812.38;;;12.68;100.00
20156;BME280;10238;49.556;10.956;2022-11-12T14:10:36;99810.97;;;12.64;100.00
20156;BME280;10238;49.556;10.956;2022-11-12T14:13:49;99825.38;;;12.62;100.00
20156;BME280;10238;49.556;10.956;2022-11-12T14:17:03;99819.63;;;12.57;100.00
20156;BME280;10238;49.556;10.956;2022-11-12T14:20:25;99819.16;;;12.52;100.00
20156;BME280;10238;49.556;10.956;2022-11-12T14:23:19;99814.34;;;12.46;100.00
20156;BME280;10238;49.556;10.956;2022-11-12T14:26:12;99806.72;;;12.41;100.00
20156;BME280;10238;49.556;10.956;2022-11-12T14:29:01;99815.16;;;12.37;100.00
20156;BME280;10238;49.556;10.956;2022-11-12T14:32:01;99806.81;;;12.30;100.00
20156;BME280;10238;49.556;10.956;2022-11-12T14:34:49;99811.81;;;12.24;100.00
20156;BME280;10238;49.556;10.956;2022-11-12T14:37:39;99803.38;;;12.19;100.00
20156;BME280;10238;49.556;10.956;2022-11-12T14:40:32;99804.88;;;12.12;100.00
20156;BME280;10238;49.556;10.956;2022-11-12T14:43:29;99806.31;;;12.05;100.00
20156;BME280;10238;49.556;10.956;2022-11-12T14:46:26;99808.53;;;12.00;100.00
20156;BME280;10238;49.556;10.956;2022-11-12T14:49:26;99802.03;;;11.93;100.00
20156;BME280;10238;49.556;10.956;2022-11-12T14:52:26;99798.34;;;11.84;100.00
20156;BME280;10238;49.556;10.956;2022-11-12T14:55:20;99798.22;;;11.75;100.00
20156;BME280;10238;49.556;10.956;2022-11-12T14:58:14;99794.50;;;11.66;100.00
20156;BME280;10238;49.556;10.956;2022-11-12T15:01:20;99795.34;;;11.56;100.00